Time;durP1;ratioP1;P1;durP2;ratioP2;P2;SDS_P1;SDS_P2;PMS_P1;PMS_P2;Temp;Humidity;BMP_temperature;BMP_pressure;BME280_temperature;BME280_humidity;BME280_pressure;Samples;Min_cycle;Max_cycle;Signal;HPM_P1;HPM_P2
2022/07/29 00:02:10;;;;;;;3.05;1.30;;;;;;;16.28;71.79;101793.31;20963771;28;20082;-60
2022/07/29 00:12:32;;;;;;;3.22;1.17;;;;;;;15.89;73.11;101775.09;20961705;28;20048;-60
2022/07/29 00:22:53;;;;;;;4.68;1.30;;;;;;;16.08;73.77;101768.41;20974606;28;20042;-60
2022/07/29 00:33:15;;;;;;;5.88;1.52;;;;;;;15.80;73.91;101765.25;20957659;28;20068;-60
2022/07/29 00:43:37;;;;;;;2.95;1.52;;;;;;;15.81;74.41;101754.63;20963031;28;20135;-64
2022/07/29 00:53:58;;;;;;;2.35;1.30;;;;;;;15.51;76.05;101733.13;20940340;28;20045;-60
2022/07/29 01:04:20;;;;;;;4.50;1.48;;;;;;;15.77;75.12;101728.66;20960245;28;20051;-61
2022/07/29 01:14:44;;;;;;;3.83;1.40;;;;;;;15.62;75.67;101714.84;20959834;28;20044;-61
2022/07/29 01:25:47;;;;;;;3.35;1.60;;;;;;;15.43;76.50;101703.06;20957030;28;20071;-62
2022/07/29 01:36:48;;;;;;;3.50;1.40;;;;;;;15.66;76.69;101699.69;20949653;28;20044;-63
2022/07/29 01:47:20;;;;;;;5.03;1.38;;;;;;;15.37;77.10;101687.75;20950255;28;20408;-64
2022/07/29 01:57:45;;;;;;;3.05;1.42;;;;;;;15.61;76.98;101671.09;20940598;28;20065;-63
2022/07/29 02:08:09;;;;;;;3.72;1.40;;;;;;;15.20;77.33;101659.19;20966378;28;20051;-64
2022/07/29 02:18:32;;;;;;;5.25;1.70;;;;;;;15.54;76.88;101648.81;20982189;28;20123;-64
2022/07/29 02:28:56;;;;;;;5.30;1.50;;;;;;;15.46;76.85;101650.31;20964200;28;20036;-61
2022/07/29 02:39:19;;;;;;;3.80;1.60;;;;;;;15.30;77.27;101652.34;20964132;28;20057;-64
2022/07/29 02:49:59;;;;;;;2.22;1.38;;;;;;;15.52;76.43;101647.25;20965336;28;20053;-61
2022/07/29 03:00:26;;;;;;;4.30;1.33;;;;;;;15.39;76.81;101643.84;20952299;28;20056;-61
2022/07/29 03:10:49;;;;;;;4.05;1.50;;;;;;;15.53;75.95;101635.78;20987539;28;20182;-64
2022/07/29 03:21:11;;;;;;;1.52;1.20;;;;;;;15.43;77.00;101635.63;20969979;28;20054;-63
2022/07/29 03:31:32;;;;;;;4.95;1.50;;;;;;;15.33;76.33;101631.13;20964399;28;20045;-63
2022/07/29 03:41:56;;;;;;;5.03;1.65;;;;;;;15.35;77.33;101636.28;20961974;28;20076;-62
2022/07/29 03:52:18;;;;;;;8.07;1.67;;;;;;;15.31;77.56;101630.38;20965906;28;20059;-63
2022/07/29 04:02:39;;;;;;;4.78;1.40;;;;;;;15.35;76.98;101626.59;20966255;28;20049;-63
2022/07/29 04:13:01;;;;;;;6.82;1.63;;;;;;;15.28;76.38;101620.13;20965861;28;20235;-63
2022/07/29 04:23:23;;;;;;;4.07;1.40;;;;;;;15.27;77.61;101623.69;20961880;28;20045;-63
2022/07/29 04:33:44;;;;;;;;;;;;;;;15.32;77.81;101616.31;20966318;28;20052;-63
2022/07/29 04:44:06;;;;;;;7.27;1.67;;;;;;;15.36;77.44;101611.66;20962115;28;19931;-63
2022/07/29 04:54:33;;;;;;;8.25;1.45;;;;;;;15.26;77.79;101613.28;20960461;28;20402;-64
2022/07/29 05:04:57;;;;;;;3.72;1.30;;;;;;;15.24;78.27;101610.72;20948899;28;20039;-63
2022/07/29 05:15:18;;;;;;;4.85;1.60;;;;;;;15.40;78.30;101607.88;20961437;28;20056;-64
2022/07/29 05:25:40;;;;;;;3.30;1.65;;;;;;;15.42;77.79;101606.81;20952261;28;20044;-63
2022/07/29 05:36:07;;;;;;;4.60;1.70;;;;;;;15.37;78.19;101619.44;20974403;28;20055;-62
2022/07/29 05:46:29;;;;;;;2.92;1.50;;;;;;;15.54;77.25;101611.19;20974251;28;20041;-62
2022/07/29 05:56:51;;;;;;;7.10;2.00;;;;;;;15.73;76.49;101616.75;20976261;28;20437;-63
2022/07/29 06:07:12;;;;;;;3.50;1.63;;;;;;;16.05;76.17;101612.59;20969816;28;20655;-63
2022/07/29 06:17:34;;;;;;;7.00;1.80;;;;;;;16.23;76.50;101613.88;20980784;28;20489;-62
2022/07/29 06:27:57;;;;;;;3.85;1.50;;;;;;;16.34;77.56;101609.50;20972072;28;20087;-62
2022/07/29 06:38:18;;;;;;;7.25;2.00;;;;;;;16.39;77.01;101609.97;20969699;28;20049;-62
2022/07/29 06:48:54;;;;;;;3.60;1.60;;;;;;;16.50;76.54;101621.38;20967461;28;20131;-63
2022/07/29 06:59:16;;;;;;;5.72;1.83;;;;;;;16.71;75.92;101613.63;20969197;28;20071;-61
2022/07/29 07:09:37;;;;;;;3.65;1.92;;;;;;;17.23;76.19;101622.59;20970276;28;20410;-61
2022/07/29 07:20:01;;;;;;;5.63;1.92;;;;;;;17.42;75.12;101618.41;20960463;28;20051;-61
2022/07/29 07:30:23;;;;;;;5.68;2.00;;;;;;;17.68;73.74;101618.94;20964717;28;20064;-61
2022/07/29 07:40:46;;;;;;;5.05;1.95;;;;;;;18.47;69.74;101621.00;20967126;28;20489;-62
2022/07/29 07:51:07;;;;;;;6.40;2.03;;;;;;;18.73;68.87;101627.53;20960701;28;20044;-61
2022/07/29 08:01:29;;;;;;;5.80;2.00;;;;;;;18.77;67.98;101628.09;20966985;28;20045;-62
2022/07/29 08:12:08;;;;;;;4.15;2.15;;;;;;;19.15;67.88;101634.44;20955477;28;20063;-62
2022/07/29 08:22:30;;;;;;;6.03;2.00;;;;;;;19.48;66.43;101626.19;20948126;28;20044;-63
2022/07/29 08:32:52;;;;;;;3.33;1.77;;;;;;;19.69;65.93;101624.25;20961534;28;20052;-62
2022/07/29 08:43:16;;;;;;;3.50;1.35;;;;;;;19.98;63.92;101633.09;20959544;28;20405;-62
2022/07/29 08:53:41;;;;;;;7.50;2.22;;;;;;;20.22;65.17;101620.28;20958801;28;20054;-64
2022/07/29 09:04:05;;;;;;;3.95;1.70;;;;;;;20.06;64.47;101606.75;20978617;28;20123;-63
2022/07/29 09:14:27;;;;;;;5.15;2.22;;;;;;;20.40;66.42;101617.56;20964705;28;20140;-62
2022/07/29 09:24:50;;;;;;;8.35;2.25;;;;;;;20.82;62.15;101602.97;20959999;28;20052;-62
2022/07/29 09:35:21;;;;;;;5.97;1.70;;;;;;;20.96;62.26;101599.03;20956403;28;20047;-62
2022/07/29 09:45:42;;;;;;;7.13;1.85;;;;;;;21.60;60.49;101590.03;20980285;28;20100;-63
2022/07/29 09:56:04;;;;;;;4.20;1.60;;;;;;;21.54;61.79;101590.63;20957460;28;20124;-62
2022/07/29 10:06:26;;;;;;;5.70;2.13;;;;;;;22.49;55.27;101585.31;20952973;28;20051;-63
2022/07/29 10:16:47;;;;;;;4.20;1.95;;;;;;;23.06;55.47;101585.50;20954836;28;20051;-63
2022/07/29 10:27:09;;;;;;;3.38;1.40;;;;;;;22.79;54.10;101577.69;20968572;28;20047;-62
2022/07/29 10:38:08;;;;;;;3.00;1.40;;;;;;;22.75;54.18;101576.34;20970861;28;20048;-64
2022/07/29 10:49:09;;;;;;;6.10;1.40;;;;;;;23.08;53.59;101567.56;20970118;28;20571;-64
2022/07/29 10:59:31;;;;;;;10.85;1.40;;;;;;;23.38;53.52;101566.97;20981996;28;20045;-63
2022/07/29 11:10:12;;;;;;;5.00;1.30;;;;;;;23.67;53.69;101551.38;20962160;28;20060;-65
2022/07/29 11:20:41;;;;;;;3.33;1.40;;;;;;;24.68;51.03;101558.66;20965784;28;20055;-62
2022/07/29 11:31:04;;;;;;;3.35;1.25;;;;;;;24.31;51.21;101543.38;20967387;28;20076;-64
2022/07/29 11:41:28;;;;;;;4.53;1.30;;;;;;;24.46;47.89;101556.72;20966313;28;20044;-63
2022/07/29 11:51:53;;;;;;;6.70;1.48;;;;;;;24.40;49.33;101554.72;20959983;28;20082;-63
2022/07/29 12:02:16;;;;;;;4.70;1.48;;;;;;;24.10;50.20;101551.91;20962447;28;20045;-63
2022/07/29 12:12:58;;;;;;;5.40;1.40;;;;;;;24.21;53.04;101558.72;20965264;28;20045;-63
2022/07/29 12:23:19;;;;;;;3.10;1.40;;;;;;;23.91;52.77;101552.25;20962770;28;20086;-63
2022/07/29 12:33:42;;;;;;;8.60;1.45;;;;;;;23.81;50.50;101540.09;20961727;28;20036;-63
2022/07/29 12:44:04;;;;;;;3.83;1.38;;;;;;;24.05;52.62;101542.75;20963210;28;20036;-63
2022/07/29 12:54:25;;;;;;;5.25;1.25;;;;;;;24.19;51.77;101539.41;20960025;28;20052;-63
2022/07/29 13:04:58;;;;;;;4.30;1.42;;;;;;;24.25;51.66;101522.75;20960703;28;20044;-63
2022/07/29 13:15:21;;;;;;;7.95;1.55;;;;;;;24.22;51.19;101526.59;20957284;28;20071;-63
2022/07/29 13:25:43;;;;;;;4.88;1.30;;;;;;;24.18;47.29;101519.94;20954136;28;20040;-63
2022/07/29 13:36:06;;;;;;;4.28;1.30;;;;;;;24.30;49.94;101533.75;20959437;28;20045;-61
2022/07/29 13:46:27;;;;;;;4.90;1.08;;;;;;;24.09;49.41;101522.78;20957460;28;20045;-63
2022/07/29 13:56:50;;;;;;;5.15;1.23;;;;;;;24.08;49.81;101521.09;20957815;28;20064;-61
2022/07/29 14:07:12;;;;;;;1.67;1.13;;;;;;;24.03;47.45;101526.09;20968143;28;20075;-61
2022/07/29 14:17:37;;;;;;;2.53;1.30;;;;;;;24.25;51.79;101525.41;20972818;28;20128;-61
2022/07/29 14:27:58;;;;;;;4.85;1.35;;;;;;;23.98;51.02;101525.78;20964627;28;20054;-63
2022/07/29 14:38:20;;;;;;;4.20;1.20;;;;;;;24.01;53.87;101528.94;20983326;28;20033;-61
2022/07/29 14:48:47;;;;;;;5.25;1.52;;;;;;;23.77;54.86;101536.09;20963719;28;20041;-61
2022/07/29 14:59:09;;;;;;;4.45;1.40;;;;;;;23.79;53.88;101531.44;20978151;28;20509;-61
2022/07/29 15:09:30;;;;;;;3.22;1.50;;;;;;;23.66;54.08;101533.75;20958710;28;20055;-62
2022/07/29 15:19:56;;;;;;;6.32;1.85;;;;;;;22.96;68.26;101542.19;20984159;28;20057;-62
2022/07/29 15:30:18;;;;;;;5.05;1.60;;;;;;;22.48;73.72;101536.66;20968158;28;20048;-62
2022/07/29 15:40:54;;;;;;;7.45;1.60;;;;;;;22.39;74.86;101520.81;20945757;28;20063;-62
2022/07/29 15:51:16;;;;;;;4.65;1.88;;;;;;;22.27;72.55;101508.75;20957600;28;20130;-62
2022/07/29 16:01:39;;;;;;;3.53;1.77;;;;;;;22.14;73.28;101486.25;20949550;28;20040;-61
2022/07/29 16:12:03;;;;;;;5.05;2.50;;;;;;;22.09;73.85;101475.28;20960156;28;20041;-62
2022/07/29 16:22:35;;;;;;;6.45;2.03;;;;;;;22.04;73.05;101473.09;20956460;28;20037;-62
2022/07/29 16:32:57;;;;;;;3.20;1.55;;;;;;;21.88;69.47;101467.66;20958178;28;20074;-62
2022/07/29 16:43:19;;;;;;;7.47;2.08;;;;;;;21.95;69.97;101454.59;20957797;28;20048;-62
2022/07/29 16:53:41;;;;;;;2.55;1.50;;;;;;;21.95;67.91;101467.88;20954636;28;20044;-62
2022/07/29 17:04:05;;;;;;;3.35;1.60;;;;;;;21.91;67.15;101463.84;20967808;28;20044;-61
2022/07/29 17:14:29;;;;;;;8.35;1.90;;;;;;;21.98;66.30;101476.38;20947123;28;20044;-62
2022/07/29 17:24:52;;;;;;;4.43;1.83;;;;;;;21.92;65.74;101470.84;20947846;28;20048;-63
2022/07/29 17:45:54;;;;;;;4.82;1.55;;;;;;;21.97;63.78;101477.34;20937886;28;20060;-62
2022/07/29 17:56:20;;;;;;;4.75;1.58;;;;;;;21.90;64.17;101492.25;20936193;28;20059;-61
2022/07/29 18:06:42;;;;;;;8.95;1.85;;;;;;;21.88;65.03;101488.06;20937780;28;20048;-61
2022/07/29 18:17:04;;;;;;;4.80;2.00;;;;;;;21.86;64.68;101501.50;20935388;28;20047;-62
2022/07/29 18:27:25;;;;;;;4.75;1.50;;;;;;;21.86;65.94;101508.63;20939571;28;20381;-62
2022/07/29 18:37:47;;;;;;;3.97;2.00;;;;;;;21.88;66.12;101517.28;20939379;28;20124;-62
2022/07/29 18:48:22;;;;;;;7.32;1.88;;;;;;;21.68;66.11;101505.19;20947814;28;20102;-61
2022/07/29 18:58:44;;;;;;;4.32;1.42;;;;;;;21.65;63.28;101508.13;20960084;28;20072;-62
2022/07/29 19:09:09;;;;;;;6.75;1.40;;;;;;;21.70;62.86;101500.53;20953342;28;20052;-61
2022/07/29 19:19:31;;;;;;;2.67;1.30;;;;;;;21.62;63.30;101500.47;20946935;28;20520;-61
2022/07/29 19:29:53;;;;;;;6.13;1.85;;;;;;;21.63;63.48;101496.84;20961010;28;20059;-62
2022/07/29 19:40:20;;;;;;;5.03;1.88;;;;;;;21.57;64.06;101492.97;20960258;28;20400;-62
2022/07/29 19:50:42;;;;;;;4.00;1.63;;;;;;;21.52;64.05;101507.66;20962027;28;20040;-62
2022/07/29 20:01:04;;;;;;;5.60;1.70;;;;;;;21.49;65.71;101513.25;20961937;28;20413;-62
2022/07/29 20:11:35;;;;;;;4.18;1.33;;;;;;;21.51;65.67;101521.91;20972383;28;20058;-62
2022/07/29 20:21:57;;;;;;;5.65;1.60;;;;;;;21.38;67.26;101542.69;20960945;28;20048;-61
2022/07/29 20:32:20;;;;;;;6.22;2.15;;;;;;;21.12;69.91;101541.72;20966590;28;20052;-61
2022/07/29 20:42:42;;;;;;;9.02;2.60;;;;;;;20.84;72.92;101558.59;20960817;28;20273;-61
2022/07/29 20:53:03;;;;;;;4.35;2.38;;;;;;;20.49;77.14;101553.16;20954457;28;20044;-61
2022/07/29 21:03:25;;;;;;;5.55;2.35;;;;;;;20.55;75.73;101562.34;20958778;28;20178;-62
2022/07/29 21:13:47;;;;;;;5.85;2.50;;;;;;;20.47;76.27;101560.41;20986841;28;20051;-61
2022/07/29 21:24:09;;;;;;;4.18;2.33;;;;;;;20.51;74.90;101556.50;20953787;28;20060;-62
2022/07/29 21:34:32;;;;;;;4.90;2.08;;;;;;;20.36;76.83;101558.91;20956114;28;20140;-61
2022/07/29 21:44:54;;;;;;;6.05;2.30;;;;;;;20.17;78.11;101556.28;20957794;28;20718;-61
2022/07/29 21:55:15;;;;;;;5.93;2.28;;;;;;;20.15;77.15;101569.69;20960650;28;20045;-62
2022/07/29 22:05:40;;;;;;;6.95;2.58;;;;;;;20.20;77.88;101561.31;20942971;28;20358;-62
2022/07/29 22:16:01;;;;;;;5.28;2.30;;;;;;;20.07;77.63;101555.50;20951528;28;20070;-61
2022/07/29 22:26:23;;;;;;;4.22;2.35;;;;;;;19.98;78.13;101558.97;20974234;28;20142;-61
2022/07/29 22:36:46;;;;;;;7.72;2.47;;;;;;;20.05;77.95;101554.78;20965444;28;20044;-61
2022/07/29 22:47:07;;;;;;;5.40;2.45;;;;;;;19.96;78.87;101548.50;20972787;28;20051;-62
2022/07/29 22:57:29;;;;;;;3.75;2.17;;;;;;;19.91;79.67;101552.53;20985369;28;20047;-61
2022/07/29 23:07:50;;;;;;;6.07;2.25;;;;;;;19.63;80.64;101553.38;20974788;28;20045;-61
2022/07/29 23:18:12;;;;;;;6.13;2.25;;;;;;;19.60;81.05;101548.38;20967061;28;20060;-61
2022/07/29 23:28:34;;;;;;;5.68;2.45;;;;;;;19.70;82.19;101536.81;20967236;28;20040;-61
2022/07/29 23:38:56;;;;;;;8.90;2.50;;;;;;;19.62;81.56;101543.78;20952861;28;20560;-61
2022/07/29 23:49:17;;;;;;;4.65;2.20;;;;;;;19.54;83.35;101540.97;20965469;28;20037;-61
2022/07/29 23:59:39;;;;;;;4.70;2.22;;;;;;;19.33;82.80;101521.75;20964737;28;20135;-61
